createdAt,value
2022-08-21T00:00:32.820Z,98184.75
2022-08-21T00:03:07.881Z,98183.00
2022-08-21T00:05:45.762Z,98180.25
2022-08-21T00:08:16.933Z,98181.25
2022-08-21T00:10:48.179Z,98174.56
2022-08-21T00:13:20.719Z,98174.16
2022-08-21T00:15:52.788Z,98175.56
2022-08-21T00:18:23.706Z,98179.66
2022-08-21T00:20:56.649Z,98180.22
2022-08-21T00:23:27.114Z,98168.66
2022-08-21T00:25:57.313Z,98179.09
2022-08-21T00:28:27.308Z,98176.91
2022-08-21T00:30:57.728Z,98172.22
2022-08-21T00:33:28.113Z,98167.91
2022-08-21T00:36:01.407Z,98174.63
2022-08-21T00:38:31.398Z,98170.09
2022-08-21T00:41:27.587Z,98164.78
2022-08-21T00:43:58.669Z,98171.06
2022-08-21T00:46:28.964Z,98167.56
2022-08-21T00:48:59.853Z,98171.06
2022-08-21T00:51:40.304Z,98172.66
2022-08-21T00:54:18.311Z,98167.94
2022-08-21T00:56:53.805Z,98164.81
2022-08-21T00:59:27.192Z,98161.88
2022-08-21T01:01:57.695Z,98163.25
2022-08-21T01:04:28.126Z,98171.09
2022-08-21T01:07:01.020Z,98165.97
2022-08-21T01:09:31.208Z,98163.44
2022-08-21T01:12:01.346Z,98158.31
2022-08-21T01:14:32.484Z,98160.50
2022-08-21T01:17:05.593Z,98164.22
2022-08-21T01:19:36.156Z,98168.56
2022-08-21T01:22:10.863Z,98161.28
2022-08-21T01:24:40.929Z,98160.31
2022-08-21T01:27:11.709Z,98159.34
2022-08-21T01:29:48.753Z,98157.38
2022-08-21T01:32:22.225Z,98155.59
2022-08-21T01:34:55.960Z,98161.09
2022-08-21T01:37:29.111Z,98158.13
2022-08-21T01:39:59.229Z,98155.78
2022-08-21T01:42:29.769Z,98162.28
2022-08-21T01:45:00.193Z,98159.72
2022-08-21T01:47:30.318Z,98152.06
2022-08-21T01:50:00.502Z,98159.72
2022-08-21T01:52:33.210Z,98162.88
2022-08-21T01:55:03.366Z,98152.25
2022-08-21T01:57:33.968Z,98149.50
2022-08-21T02:00:04.679Z,98149.50
2022-08-21T02:02:42.551Z,98148.13
2022-08-21T02:05:16.269Z,98147.94
2022-08-21T02:07:52.976Z,98144.41
2022-08-21T02:10:27.588Z,98141.66
2022-08-21T02:12:57.816Z,98134.19
2022-08-21T02:15:28.334Z,98141.25
2022-08-21T02:18:01.621Z,98140.47
2022-08-21T02:20:35.511Z,98152.25
2022-08-21T02:23:11.145Z,98147.56
2022-08-21T02:25:42.150Z,98143.19
2022-08-21T02:28:16.989Z,98140.25
2022-08-21T02:30:53.405Z,98131.63
2022-08-21T02:33:23.502Z,98139.28
2022-08-21T02:35:54.139Z,98144.41
2022-08-21T02:38:31.265Z,98145.00
2022-08-21T02:41:01.743Z,98142.44
2022-08-21T02:43:32.238Z,98132.41
2022-08-21T02:46:02.418Z,98141.25
2022-08-21T02:48:37.819Z,98131.41
2022-08-21T02:51:12.327Z,98140.44
2022-08-21T02:53:46.710Z,98145.34
2022-08-21T02:56:19.602Z,98136.91
2022-08-21T02:58:52.774Z,98143.19
2022-08-21T03:01:24.748Z,98142.41
2022-08-21T03:03:55.225Z,98148.09
2022-08-21T03:06:26.614Z,98147.50
2022-08-21T03:08:59.289Z,98136.91
2022-08-21T03:11:29.571Z,98140.81
2022-08-21T03:13:59.658Z,98139.25
2022-08-21T03:16:34.373Z,98143.53
2022-08-21T03:19:05.991Z,98138.84
2022-08-21T03:21:36.007Z,98140.81
2022-08-21T03:24:10.482Z,98138.06
2022-08-21T03:26:41.444Z,98140.41
2022-08-21T03:29:11.653Z,98140.41
2022-08-21T03:31:41.625Z,98143.94
2022-08-21T03:34:11.760Z,98144.94
2022-08-21T03:36:41.901Z,98143.75
2022-08-21T03:39:14.649Z,98144.16
2022-08-21T03:41:44.993Z,98141.63
2022-08-21T03:44:15.033Z,98147.91
2022-08-21T03:46:44.949Z,98153.41
2022-08-21T03:49:14.938Z,98150.63
2022-08-21T03:51:44.929Z,98146.31
2022-08-21T03:54:17.579Z,98153.75
2022-08-21T03:56:48.477Z,98158.88
2022-08-21T03:59:18.742Z,98159.25
2022-08-21T04:01:57.017Z,98163.38
2022-08-21T04:04:27.675Z,98158.69
2022-08-21T04:06:58.258Z,98156.53
2022-08-21T04:09:31.357Z,98157.28
2022-08-21T04:12:04.119Z,98162.75
2022-08-21T04:14:34.093Z,98160.00
2022-08-21T04:17:04.129Z,98162.56
2022-08-21T04:19:34.246Z,98163.75
2022-08-21T04:22:04.289Z,98159.81
2022-08-21T04:24:36.882Z,98168.28
2022-08-21T04:27:07.180Z,98168.09
2022-08-21T04:29:40.007Z,98174.56
2022-08-21T04:32:10.368Z,98187.50
2022-08-21T04:34:40.469Z,98187.13
2022-08-21T04:37:10.459Z,98185.94
2022-08-21T04:39:43.155Z,98189.09
2022-08-21T04:42:13.106Z,98191.06
2022-08-21T04:44:43.122Z,98194.44
2022-08-21T04:47:13.129Z,98191.69
2022-08-21T04:49:43.089Z,98191.50
2022-08-21T04:52:14.769Z,98197.44
2022-08-21T04:54:54.796Z,98191.34
2022-08-21T04:57:39.718Z,98193.53
2022-08-21T05:00:20.330Z,98201.56
2022-08-21T05:02:55.348Z,98197.06
2022-08-21T05:05:25.722Z,98203.16
2022-08-21T05:07:57.229Z,98203.56
2022-08-21T05:10:32.386Z,98202.50
2022-08-21T05:13:04.361Z,98204.47
2022-08-21T05:15:34.411Z,98205.91
2022-08-21T05:18:04.498Z,98208.78
2022-08-21T05:20:35.422Z,98210.38
2022-08-21T05:23:11.314Z,98208.25
2022-08-21T05:25:45.051Z,98217.59
2022-08-21T05:28:16.434Z,98218.00
2022-08-21T05:30:46.718Z,98221.84
2022-08-21T05:33:16.921Z,98227.19
2022-08-21T05:35:46.889Z,98232.00
2022-08-21T05:38:18.570Z,98229.03
2022-08-21T05:40:51.375Z,98226.34
2022-08-21T05:43:21.470Z,98230.22
2022-08-21T05:45:51.544Z,98235.34
2022-08-21T05:48:27.373Z,98235.75
2022-08-21T05:50:57.561Z,98234.31
2022-08-21T05:53:28.666Z,98242.91
2022-08-21T05:56:01.382Z,98238.47
2022-08-21T05:58:31.321Z,98234.22
2022-08-21T06:01:01.327Z,98240.53
2022-08-21T06:03:36.236Z,98244.22
2022-08-21T06:06:07.362Z,98240.78
2022-08-21T06:08:37.904Z,98236.94
2022-08-21T06:11:12.593Z,98234.28
2022-08-21T06:13:43.068Z,98239.66
2022-08-21T06:16:17.531Z,98238.47
2022-08-21T06:18:49.378Z,98232.50
2022-08-21T06:21:19.951Z,98245.00
2022-08-21T06:23:50.094Z,98239.66
2022-08-21T06:26:23.223Z,98238.13
2022-08-21T06:28:53.371Z,98230.09
2022-08-21T06:31:28.061Z,98240.19
2022-08-21T06:33:58.797Z,98228.38
2022-08-21T06:36:28.898Z,98238.38
2022-08-21T06:38:58.891Z,98232.81
2022-08-21T06:41:39.052Z,98227.72
2022-08-21T06:44:09.260Z,98234.09
2022-08-21T06:46:40.585Z,98232.47
2022-08-21T06:49:17.517Z,98231.69
2022-08-21T06:51:51.546Z,98226.69
2022-08-21T06:54:21.500Z,98224.38
2022-08-21T06:56:54.119Z,98227.03
2022-08-21T06:59:24.139Z,98218.06
2022-08-21T07:01:54.175Z,98217.97
2022-08-21T07:04:24.353Z,98221.66
2022-08-21T07:06:54.434Z,98221.03
2022-08-21T07:09:25.025Z,98213.53
2022-08-21T07:12:00.057Z,98217.28
2022-08-21T07:14:30.290Z,98212.34
2022-08-21T07:17:00.354Z,98211.72
2022-08-21T07:19:30.318Z,98211.38
2022-08-21T07:22:05.141Z,98201.06
2022-08-21T07:24:35.139Z,98206.00
2022-08-21T07:27:10.029Z,98207.97
2022-08-21T07:29:40.365Z,98200.03
2022-08-21T07:32:10.404Z,98199.06
2022-08-21T07:34:40.436Z,98189.78
2022-08-21T07:37:10.486Z,98195.94
2022-08-21T07:39:40.869Z,98190.97
2022-08-21T07:42:13.638Z,98195.94
2022-08-21T07:44:43.857Z,98194.31
2022-08-21T07:47:13.939Z,98187.06
2022-08-21T07:49:43.906Z,98192.81
2022-08-21T07:52:13.915Z,98188.44
2022-08-21T07:54:43.893Z,98181.94
2022-08-21T07:57:16.909Z,98185.03
2022-08-21T07:59:51.641Z,98185.75
2022-08-21T08:02:28.166Z,98183.56
2022-08-21T08:05:02.513Z,98184.56
2022-08-21T08:07:32.898Z,98178.13
2022-08-21T08:10:02.862Z,98175.66
2022-08-21T08:12:35.439Z,98179.91
2022-08-21T08:15:11.490Z,98173.34
2022-08-21T08:17:41.891Z,98178.22
2022-08-21T08:20:15.465Z,98169.00
2022-08-21T08:22:49.992Z,98170.75
2022-08-21T08:25:23.939Z,98164.69
2022-08-21T08:27:56.926Z,98162.38
2022-08-21T08:30:31.182Z,98150.06
2022-08-21T08:33:03.240Z,98156.47
2022-08-21T08:35:33.312Z,98150.47
2022-08-21T08:38:03.410Z,98142.16
2022-08-21T08:40:43.181Z,98148.03
2022-08-21T08:43:16.927Z,98145.78
2022-08-21T08:45:51.873Z,98136.59
2022-08-21T08:48:43.101Z,98138.84
2022-08-21T08:51:25.369Z,98133.69
2022-08-21T08:54:02.356Z,98130.00
2022-08-21T08:56:36.563Z,98135.81
2022-08-21T08:59:18.822Z,98139.72
2022-08-21T09:01:49.682Z,98135.69
2022-08-21T09:04:29.666Z,98128.13
2022-08-21T09:07:16.681Z,98135.88
2022-08-21T09:10:07.268Z,98132.03
2022-08-21T09:12:49.494Z,98131.81
2022-08-21T09:15:34.388Z,98130.84
2022-08-21T09:18:22.240Z,98123.31
2022-08-21T09:21:03.672Z,98110.69
2022-08-21T09:23:46.622Z,98120.50
2022-08-21T09:26:20.101Z,98115.81
2022-08-21T09:28:56.111Z,98110.84
2022-08-21T09:31:33.106Z,98108.72
2022-08-21T09:34:05.380Z,98108.91
2022-08-21T09:36:46.868Z,98093.78
2022-08-21T09:39:27.874Z,98110.91
2022-08-21T09:42:03.736Z,98109.41
2022-08-21T09:44:40.862Z,98105.91
2022-08-21T09:47:16.167Z,98104.22
2022-08-21T09:49:48.370Z,98101.84
2022-08-21T09:52:24.598Z,98096.75
2022-08-21T09:54:58.088Z,98095.22
2022-08-21T09:57:50.403Z,98085.63
2022-08-21T10:00:30.826Z,98085.47
2022-08-21T10:03:19.690Z,98086.97
2022-08-21T10:06:02.710Z,98093.19
2022-08-21T10:08:34.055Z,98086.13
2022-08-21T10:11:10.781Z,98079.81
2022-08-21T10:13:59.063Z,98082.72
2022-08-21T10:16:45.368Z,98081.44
2022-08-21T10:19:33.133Z,98070.41
2022-08-21T10:22:25.482Z,98071.53
2022-08-21T10:25:08.994Z,98062.56
2022-08-21T10:27:50.860Z,98069.25
2022-08-21T10:30:34.870Z,98061.31
2022-08-21T10:33:36.199Z,98061.31
2022-08-21T10:36:21.891Z,98061.97
2022-08-21T10:42:28.635Z,98054.59
2022-08-21T10:45:15.026Z,98056.09
2022-08-21T10:47:56.052Z,98054.28
2022-08-21T10:50:39.542Z,98056.00
2022-08-21T10:53:45.946Z,98054.41
2022-08-21T10:56:22.868Z,98047.84
2022-08-21T10:59:21.682Z,98045.44
2022-08-21T11:01:58.182Z,98053.16
2022-08-21T11:04:49.075Z,98038.28
2022-08-21T11:07:34.246Z,98034.81
2022-08-21T11:10:17.027Z,98040.97
2022-08-21T11:12:57.323Z,98038.47
2022-08-21T11:15:44.960Z,98032.69
2022-08-21T11:18:28.765Z,98036.75
2022-08-21T11:21:19.394Z,98031.94
2022-08-21T11:23:56.798Z,98029.63
2022-08-21T11:26:37.914Z,98024.50
2022-08-21T11:29:17.425Z,98024.69
2022-08-21T11:32:04.807Z,98031.31
2022-08-21T11:34:58.376Z,98022.53
2022-08-21T11:37:51.270Z,98004.81
2022-08-21T11:40:45.448Z,98016.88
2022-08-21T11:43:33.776Z,98011.16
2022-08-21T11:46:19.781Z,98016.94
2022-08-21T11:49:06.812Z,98010.25
2022-08-21T11:51:55.424Z,98006.09
2022-08-21T11:54:32.719Z,98013.75
2022-08-21T11:57:09.547Z,98004.44
2022-08-21T11:59:50.921Z,98001.41
2022-08-21T12:02:27.461Z,98005.75
2022-08-21T12:05:09.241Z,98001.53
2022-08-21T12:07:43.585Z,97990.72
2022-08-21T12:10:21.982Z,98003.81
2022-08-21T12:12:52.598Z,98006.66
2022-08-21T12:15:40.296Z,97994.78
2022-08-21T12:18:25.922Z,97990.78
2022-08-21T12:21:07.017Z,97997.59
2022-08-21T12:23:50.358Z,97992.56
2022-08-21T12:26:35.721Z,97995.00
2022-08-21T12:29:17.978Z,97982.81
2022-08-21T12:32:02.070Z,97981.47
2022-08-21T12:34:40.938Z,97977.41
2022-08-21T12:37:25.634Z,97965.91
2022-08-21T12:39:59.064Z,97971.00
2022-08-21T12:42:42.377Z,97963.69
2022-08-21T12:45:22.706Z,97962.34
2022-08-21T12:48:03.945Z,97955.03
2022-08-21T12:50:41.887Z,97955.03
2022-08-21T12:53:23.993Z,97944.69
2022-08-21T12:55:54.922Z,97951.97
2022-08-21T12:58:28.101Z,97939.31
2022-08-21T13:01:06.801Z,97948.47
2022-08-21T13:03:41.956Z,97945.06
2022-08-21T13:06:20.383Z,97950.81
2022-08-21T13:08:59.384Z,97947.97
2022-08-21T13:11:32.551Z,97951.16
2022-08-21T13:14:06.952Z,97945.28
2022-08-21T13:16:38.350Z,97951.63
2022-08-21T13:19:24.060Z,97946.66
2022-08-21T13:21:55.467Z,97948.84
2022-08-21T13:24:42.313Z,97948.75
2022-08-21T13:27:27.741Z,97945.47
2022-08-21T13:30:16.602Z,97934.81
2022-08-21T13:32:52.546Z,97942.78
2022-08-21T13:35:29.955Z,97944.97
2022-08-21T13:38:01.311Z,97939.38
2022-08-21T13:40:36.115Z,97936.84
2022-08-21T13:43:07.209Z,97937.09
2022-08-21T13:45:37.359Z,97937.25
2022-08-21T13:48:08.877Z,97944.22
2022-08-21T13:50:44.418Z,97929.06
2022-08-21T13:53:27.901Z,97930.31
2022-08-21T13:56:00.736Z,97924.28
2022-08-21T13:58:34.305Z,97929.78
2022-08-21T14:01:06.649Z,97925.88
2022-08-21T14:03:45.310Z,97923.28
2022-08-21T14:06:22.424Z,97928.63
2022-08-21T14:08:57.447Z,97918.03
2022-08-21T14:11:30.116Z,97915.25
2022-08-21T14:14:05.846Z,97918.75
2022-08-21T14:16:50.074Z,97925.03
2022-08-21T14:19:26.287Z,97918.91
2022-08-21T14:21:59.073Z,97923.63
2022-08-21T14:24:35.767Z,97910.16
2022-08-21T14:27:10.165Z,97916.78
2022-08-21T14:29:43.909Z,97910.69
2022-08-21T14:32:24.569Z,97915.13
2022-08-21T14:34:55.483Z,97905.66
2022-08-21T14:37:31.958Z,97907.91
2022-08-21T14:40:02.786Z,97904.03
2022-08-21T14:42:33.606Z,97916.22
2022-08-21T14:45:18.136Z,97902.66
2022-08-21T14:47:53.837Z,97907.09
2022-08-21T14:50:24.093Z,97904.19
2022-08-21T14:53:00.728Z,97899.69
2022-08-21T14:55:31.372Z,97893.97
2022-08-21T14:58:01.407Z,97889.03
2022-08-21T15:00:35.882Z,97889.00
2022-08-21T15:03:06.582Z,97889.78
2022-08-21T15:05:36.688Z,97885.81
2022-08-21T15:08:09.396Z,97883.63
2022-08-21T15:10:57.116Z,97888.97
2022-08-21T15:13:30.204Z,97880.66
2022-08-21T15:16:00.495Z,97884.06
2022-08-21T15:18:33.344Z,97879.50
2022-08-21T15:21:03.333Z,97873.78
2022-08-21T15:23:36.068Z,97880.25
2022-08-21T15:26:10.217Z,97871.88
2022-08-21T15:28:40.465Z,97871.41
2022-08-21T15:31:11.070Z,97873.56
2022-08-21T15:33:41.036Z,97865.19
2022-08-21T15:36:11.758Z,97866.56
2022-08-21T15:38:44.918Z,97867.66
2022-08-21T15:41:16.197Z,97862.56
2022-08-21T15:43:51.251Z,97865.03
2022-08-21T15:46:24.281Z,97861.03
2022-08-21T15:48:59.230Z,97857.34
2022-08-21T15:51:29.811Z,97854.06
2022-08-21T15:54:02.438Z,97851.63
2022-08-21T15:56:41.789Z,97845.66
2022-08-21T15:59:18.358Z,97851.03
2022-08-21T16:01:49.465Z,97839.50
2022-08-21T16:04:27.153Z,97835.63
2022-08-21T16:07:04.384Z,97834.47
2022-08-21T16:09:41.102Z,97844.47
2022-08-21T16:12:14.782Z,97850.09
2022-08-21T16:14:44.795Z,97842.97
2022-08-21T16:17:15.033Z,97842.13
2022-08-21T16:19:45.313Z,97835.66
2022-08-21T16:22:15.353Z,97838.53
2022-08-21T16:24:48.239Z,97833.81
2022-08-21T16:27:19.525Z,97834.34
2022-08-21T16:29:50.576Z,97835.22
2022-08-21T16:32:21.441Z,97827.59
2022-08-21T16:34:52.680Z,97834.13
2022-08-21T16:37:25.410Z,97827.25
2022-08-21T16:39:58.244Z,97823.50
2022-08-21T16:42:29.721Z,97824.78
2022-08-21T16:44:59.723Z,97816.13
2022-08-21T16:47:29.676Z,97819.41
2022-08-21T16:49:59.682Z,97819.28
2022-08-21T16:52:29.926Z,97817.50
2022-08-21T16:55:02.702Z,97811.31
2022-08-21T16:57:33.273Z,97807.50
2022-08-21T17:00:05.096Z,97806.78
2022-08-21T17:02:40.158Z,97803.94
2022-08-21T17:05:13.915Z,97802.72
2022-08-21T17:07:45.922Z,97803.06
2022-08-21T17:10:20.330Z,97802.75
2022-08-21T17:12:56.528Z,97806.78
2022-08-21T17:15:31.583Z,97801.75
2022-08-21T17:18:02.297Z,97802.50
2022-08-21T17:20:33.294Z,97808.22
2022-08-21T17:23:03.465Z,97808.81
2022-08-21T17:25:37.036Z,97808.44
2022-08-21T17:28:07.705Z,97809.81
2022-08-21T17:30:38.409Z,97808.63
2022-08-21T17:33:08.469Z,97810.75
2022-08-21T17:35:38.517Z,97808.69
2022-08-21T17:38:08.570Z,97799.84
2022-08-21T17:40:42.099Z,97802.91
2022-08-21T17:43:15.365Z,97799.41
2022-08-21T17:45:46.579Z,97807.19
2022-08-21T17:48:16.688Z,97809.03
2022-08-21T17:50:46.709Z,97802.13
2022-08-21T17:53:16.682Z,97813.78
2022-08-21T17:55:49.305Z,97807.72
2022-08-21T17:58:20.098Z,97808.16
2022-08-21T18:00:50.543Z,97820.63
2022-08-21T18:03:25.081Z,97817.69
2022-08-21T18:05:57.161Z,97813.94
2022-08-21T18:08:27.186Z,97819.59
2022-08-21T18:10:59.810Z,97813.44
2022-08-21T18:13:37.903Z,97815.91
2022-08-21T18:16:12.586Z,97829.34
2022-08-21T18:18:46.132Z,97832.72
2022-08-21T18:21:16.179Z,97820.66
2022-08-21T18:23:46.946Z,97822.31
2022-08-21T18:26:29.678Z,97824.81
2022-08-21T18:29:03.208Z,97834.69
2022-08-21T18:31:36.147Z,97828.56
2022-08-21T18:34:18.184Z,97833.78
2022-08-21T18:36:50.350Z,97842.63
2022-08-21T18:39:35.852Z,97837.94
2022-08-21T18:42:16.137Z,97846.72
2022-08-21T18:44:50.766Z,97848.25
2022-08-21T18:47:27.012Z,97854.69
2022-08-21T18:49:58.006Z,97855.44
2022-08-21T18:52:28.632Z,97855.94
2022-08-21T18:54:58.790Z,97851.72
2022-08-21T18:57:42.050Z,97843.41
2022-08-21T19:00:21.293Z,97854.19
2022-08-21T19:02:51.606Z,97847.19
2022-08-21T19:05:24.339Z,97855.38
2022-08-21T19:07:55.598Z,97863.53
2022-08-21T19:10:28.604Z,97863.19
2022-08-21T19:13:04.429Z,97866.44
2022-08-21T19:15:41.271Z,97869.94
2022-08-21T19:18:16.762Z,97873.72
2022-08-21T19:20:47.714Z,97869.59
2022-08-21T19:23:20.454Z,97876.25
2022-08-21T19:26:03.622Z,97870.94
2022-08-21T19:28:42.128Z,97874.97
2022-08-21T19:31:23.506Z,97876.88
2022-08-21T19:34:02.221Z,97883.94
2022-08-21T19:36:32.428Z,97884.88
2022-08-21T19:39:08.370Z,97883.25
2022-08-21T19:41:45.575Z,97894.41
2022-08-21T19:44:23.158Z,97889.75
2022-08-21T19:46:57.575Z,97895.13
2022-08-21T19:49:33.319Z,97890.84
2022-08-21T19:52:07.214Z,97897.13
2022-08-21T19:54:44.740Z,97897.59
2022-08-21T19:57:15.666Z,97896.81
2022-08-21T19:59:48.722Z,97893.66
2022-08-21T20:02:21.379Z,97893.88
2022-08-21T20:04:54.096Z,97892.88
2022-08-21T20:10:16.129Z,97899.16
2022-08-21T20:12:51.045Z,97896.19
2022-08-21T20:15:25.450Z,97903.28
2022-08-21T20:17:55.609Z,97900.16
2022-08-21T20:20:25.708Z,97908.34
2022-08-21T20:23:00.798Z,97908.81
2022-08-21T20:25:42.226Z,97907.94
2022-08-21T20:28:12.829Z,97906.50
2022-08-21T20:30:48.393Z,97907.91
2022-08-21T20:33:18.773Z,97910.78
2022-08-21T20:35:51.282Z,97908.03
2022-08-21T20:38:22.796Z,97915.56
2022-08-21T20:40:56.704Z,97915.78
2022-08-21T20:43:28.563Z,97915.16
2022-08-21T20:46:02.547Z,97912.28
2022-08-21T20:48:49.345Z,97909.25
2022-08-21T20:51:28.826Z,97919.22
2022-08-21T20:54:10.654Z,97920.81
2022-08-21T20:56:54.738Z,97921.72
2022-08-21T20:59:44.226Z,97916.63
2022-08-21T21:02:36.215Z,97923.53
2022-08-21T21:05:15.303Z,97912.00
2022-08-21T21:08:00.546Z,97913.38
2022-08-21T21:10:39.234Z,97913.38
2022-08-21T21:13:17.888Z,97908.00
2022-08-21T21:15:52.424Z,97912.03
2022-08-21T21:18:36.818Z,97912.50
2022-08-21T21:21:23.134Z,97918.28
2022-08-21T21:24:05.078Z,97910.91
2022-08-21T21:26:46.134Z,97913.47
2022-08-21T21:29:27.106Z,97913.47
2022-08-21T21:32:00.344Z,97916.16
2022-08-21T21:34:43.658Z,97911.69
2022-08-21T21:40:35.426Z,97907.31
2022-08-21T21:43:19.090Z,97913.22
2022-08-21T21:46:12.501Z,97912.66
2022-08-21T21:49:11.526Z,97916.25
2022-08-21T21:52:00.445Z,97925.03
2022-08-21T21:55:03.615Z,97920.13
2022-08-21T21:57:56.069Z,97915.53
2022-08-21T22:00:30.138Z,97922.75
2022-08-21T22:03:13.187Z,97924.47
2022-08-21T22:06:09.530Z,97913.00
2022-08-21T22:08:58.472Z,97918.22
2022-08-21T22:11:40.472Z,97917.66
2022-08-21T22:14:16.141Z,97916.97
2022-08-21T22:16:52.607Z,97912.94
2022-08-21T22:19:29.281Z,97915.94
2022-08-21T22:22:08.828Z,97925.97
2022-08-21T22:24:48.007Z,97927.94
2022-08-21T22:27:24.695Z,97924.66
2022-08-21T22:29:58.956Z,97924.31
2022-08-21T22:32:38.617Z,97925.97
2022-08-21T22:35:20.202Z,97928.53
2022-08-21T22:37:54.931Z,97937.44
2022-08-21T22:40:31.622Z,97935.50
2022-08-21T22:43:08.802Z,97932.75
2022-08-21T22:46:00.813Z,97933.94
2022-08-21T22:48:36.228Z,97937.22
2022-08-21T22:51:13.970Z,97929.69
2022-08-21T22:53:46.330Z,97934.56
2022-08-21T22:56:36.730Z,97941.56
2022-08-21T22:59:13.426Z,97939.63
2022-08-21T23:01:48.401Z,97941.56
2022-08-21T23:04:24.675Z,97936.66
2022-08-21T23:06:59.364Z,97945.91
2022-08-21T23:09:38.122Z,97940.50
2022-08-21T23:15:21.778Z,97938.94
2022-08-21T23:18:02.777Z,97939.41
2022-08-21T23:20:42.660Z,97931.97
2022-08-21T23:23:22.234Z,97935.03
2022-08-21T23:26:17.511Z,97933.81
2022-08-21T23:29:11.444Z,97922.06
2022-08-21T23:31:53.342Z,97927.75
2022-08-21T23:34:29.897Z,97928.47
2022-08-21T23:37:48.617Z,97931.44
2022-08-21T23:40:51.410Z,97926.66
2022-08-21T23:43:41.976Z,97927.16
2022-08-21T23:46:40.157Z,97923.38
2022-08-21T23:49:25.470Z,97924.78
2022-08-21T23:52:16.147Z,97925.38
2022-08-21T23:55:06.422Z,97920.22
2022-08-21T23:58:00.835Z,97924.16
